createdAt,value
2023-03-20T00:01:33.440Z,57.04
2023-03-20T00:04:08.059Z,57.27
2023-03-20T00:07:12.888Z,57.40
2023-03-20T00:10:06.194Z,57.69
2023-03-20T00:12:36.961Z,58.02
2023-03-20T00:15:29.696Z,58.15
2023-03-20T00:18:23.260Z,58.04
2023-03-20T00:21:08.726Z,58.23
2023-03-20T00:24:06.187Z,58.29
2023-03-20T00:27:00.389Z,58.32
2023-03-20T00:29:38.902Z,58.45
2023-03-20T00:32:25.746Z,58.60
2023-03-20T00:35:33.401Z,58.87
2023-03-20T00:38:23.690Z,58.94
2023-03-20T00:41:15.943Z,59.52
2023-03-20T00:44:34.480Z,60.20
2023-03-20T00:47:37.993Z,60.80
2023-03-20T00:50:42.324Z,61.01
2023-03-20T00:53:37.031Z,61.53
2023-03-20T00:56:49.029Z,61.23
2023-03-20T00:59:39.102Z,61.60
2023-03-20T01:02:16.232Z,61.87
2023-03-20T01:05:16.739Z,61.80
2023-03-20T01:08:01.831Z,61.70
2023-03-20T01:10:55.220Z,61.59
2023-03-20T01:13:41.367Z,61.54
2023-03-20T01:16:36.720Z,61.76
2023-03-20T01:19:17.754Z,61.48
2023-03-20T01:22:04.574Z,61.45
2023-03-20T01:24:52.266Z,61.68
2023-03-20T01:27:22.393Z,61.55
2023-03-20T01:30:10.829Z,61.43
2023-03-20T01:32:56.482Z,61.40
2023-03-20T01:35:35.778Z,61.32
2023-03-20T01:38:24.720Z,61.62
2023-03-20T01:41:23.027Z,61.70
2023-03-20T01:44:22.696Z,61.79
2023-03-20T01:47:27.796Z,61.80
2023-03-20T01:50:28.812Z,61.87
2023-03-20T01:53:38.636Z,61.64
2023-03-20T01:56:35.163Z,61.63
2023-03-20T01:59:31.615Z,61.47
2023-03-20T02:02:06.963Z,61.79
2023-03-20T02:05:15.968Z,62.05
2023-03-20T02:08:27.436Z,62.43
2023-03-20T02:11:32.825Z,62.80
2023-03-20T02:14:25.562Z,62.61
2023-03-20T02:17:17.182Z,62.54
2023-03-20T02:20:33.810Z,62.79
2023-03-20T02:24:06.403Z,62.85
2023-03-20T02:27:12.616Z,63.06
2023-03-20T02:30:41.782Z,62.89
2023-03-20T02:34:18.514Z,62.83
2023-03-20T02:37:30.172Z,63.10
2023-03-20T02:40:51.869Z,63.08
2023-03-20T02:43:59.340Z,63.04
2023-03-20T02:47:15.652Z,63.28
2023-03-20T02:50:25.646Z,63.25
2023-03-20T02:53:38.092Z,63.19
2023-03-20T02:56:48.481Z,63.64
2023-03-20T02:59:51.881Z,63.56
2023-03-20T03:02:27.632Z,63.83
2023-03-20T03:05:25.307Z,63.82
2023-03-20T03:08:13.954Z,63.95
2023-03-20T03:11:05.653Z,63.91
2023-03-20T03:13:53.835Z,63.92
2023-03-20T03:16:40.112Z,63.86
2023-03-20T03:19:32.349Z,63.75
2023-03-20T03:22:10.056Z,63.79
2023-03-20T03:24:59.933Z,64.04
2023-03-20T03:27:51.550Z,64.24
2023-03-20T03:30:40.378Z,64.29
2023-03-20T03:33:39.091Z,64.09
2023-03-20T03:36:41.429Z,64.04
2023-03-20T03:39:29.544Z,63.89
2023-03-20T03:42:26.094Z,63.91
2023-03-20T03:45:20.490Z,64.14
2023-03-20T03:48:11.339Z,64.18
2023-03-20T03:51:03.141Z,64.03
2023-03-20T03:54:18.777Z,64.02
2023-03-20T03:57:23.232Z,63.93
2023-03-20T04:00:15.105Z,63.78
2023-03-20T04:03:02.738Z,63.97
2023-03-20T04:05:58.177Z,63.81
2023-03-20T04:08:49.362Z,63.71
2023-03-20T04:11:40.491Z,63.75
2023-03-20T04:14:27.189Z,63.60
2023-03-20T04:17:05.394Z,63.58
2023-03-20T04:19:37.148Z,63.82
2023-03-20T04:22:18.552Z,63.81
2023-03-20T04:25:05.475Z,63.87
2023-03-20T04:27:57.706Z,63.83
2023-03-20T04:31:14.412Z,64.02
2023-03-20T04:34:38.003Z,63.74
2023-03-20T04:37:39.530Z,63.78
2023-03-20T04:40:31.874Z,63.67
2023-03-20T04:43:37.525Z,63.63
2023-03-20T04:46:27.679Z,63.73
2023-03-20T04:49:37.557Z,63.74
2023-03-20T04:52:25.454Z,63.70
2023-03-20T04:55:37.811Z,63.50
2023-03-20T04:58:36.263Z,63.49
2023-03-20T05:01:22.435Z,63.42
2023-03-20T05:04:15.681Z,63.42
2023-03-20T05:06:53.550Z,63.53
2023-03-20T05:09:38.740Z,63.45
2023-03-20T05:12:25.018Z,63.52
2023-03-20T05:15:40.804Z,63.47
2023-03-20T05:18:56.487Z,63.53
2023-03-20T05:21:58.223Z,63.37
2023-03-20T05:25:17.753Z,63.19
2023-03-20T05:28:16.000Z,63.31
2023-03-20T05:31:23.139Z,63.42
2023-03-20T05:34:19.018Z,63.31
2023-03-20T05:37:33.780Z,63.41
2023-03-20T05:40:38.177Z,63.33
2023-03-20T05:43:39.854Z,63.42
2023-03-20T05:46:31.346Z,63.48
2023-03-20T05:49:37.943Z,63.79
2023-03-20T05:52:42.051Z,63.73
2023-03-20T05:55:45.307Z,63.86
2023-03-20T05:59:10.069Z,64.19
2023-03-20T06:02:30.437Z,64.02
2023-03-20T06:05:17.584Z,64.06
2023-03-20T06:08:19.164Z,64.05
2023-03-20T06:10:58.985Z,63.97
2023-03-20T06:13:29.138Z,64.21
2023-03-20T06:16:38.553Z,64.40
2023-03-20T06:19:25.851Z,64.24
2023-03-20T06:22:06.907Z,64.33
2023-03-20T06:24:57.028Z,64.46
2023-03-20T06:27:37.758Z,64.57
2023-03-20T06:30:27.289Z,64.40
2023-03-20T06:33:32.781Z,64.34
2023-03-20T06:36:34.124Z,64.54
2023-03-20T06:39:38.281Z,65.01
2023-03-20T06:42:41.375Z,65.13
2023-03-20T06:45:34.604Z,65.21
2023-03-20T06:48:58.199Z,65.37
2023-03-20T06:51:41.339Z,65.46
2023-03-20T06:54:34.844Z,65.41
2023-03-20T06:57:38.102Z,65.47
2023-03-20T07:00:25.415Z,65.82
2023-03-20T07:03:10.683Z,65.72
2023-03-20T07:05:54.870Z,65.78
2023-03-20T07:08:30.092Z,65.73
2023-03-20T07:11:20.251Z,65.68
2023-03-20T07:14:09.952Z,65.54
2023-03-20T07:17:21.436Z,65.62
2023-03-20T07:20:07.572Z,65.50
2023-03-20T07:22:55.894Z,65.79
2023-03-20T07:25:42.817Z,65.86
2023-03-20T07:28:35.136Z,65.87
2023-03-20T07:31:29.563Z,65.99
2023-03-20T07:34:19.087Z,66.05
2023-03-20T07:36:58.829Z,66.26
2023-03-20T07:39:39.615Z,66.41
2023-03-20T07:43:07.883Z,66.50
2023-03-20T07:46:29.681Z,66.69
2023-03-20T07:49:20.947Z,66.75
2023-03-20T07:52:00.794Z,67.03
2023-03-20T07:54:52.348Z,67.13
2023-03-20T07:57:25.499Z,67.07
2023-03-20T08:00:00.533Z,67.04
2023-03-20T08:02:47.796Z,67.18
2023-03-20T08:05:39.770Z,67.15
2023-03-20T08:08:09.612Z,67.22
2023-03-20T08:10:55.792Z,67.12
2023-03-20T08:13:32.872Z,67.08
2023-03-20T08:16:14.741Z,67.09
2023-03-20T08:19:19.446Z,67.08
2023-03-20T08:22:03.742Z,67.32
2023-03-20T08:24:38.641Z,67.10
2023-03-20T08:27:37.378Z,67.14
2023-03-20T08:30:44.324Z,67.23
2023-03-20T08:33:38.947Z,67.40
2023-03-20T08:36:21.905Z,67.49
2023-03-20T08:38:59.108Z,67.66
2023-03-20T08:41:39.020Z,67.61
2023-03-20T08:44:37.789Z,67.69
2023-03-20T08:47:08.717Z,67.74
2023-03-20T08:49:42.147Z,67.70
2023-03-20T08:52:16.959Z,67.71
2023-03-20T08:55:09.315Z,67.70
2023-03-20T08:57:48.206Z,67.86
2023-03-20T09:00:32.996Z,68.05
2023-03-20T09:03:21.026Z,67.92
2023-03-20T09:06:00.039Z,67.85
2023-03-20T09:08:37.447Z,67.67
2023-03-20T09:11:31.149Z,67.84
2023-03-20T09:14:31.429Z,67.69
2023-03-20T09:17:32.770Z,67.72
2023-03-20T09:20:18.366Z,67.53
2023-03-20T09:23:05.588Z,67.65
2023-03-20T09:25:42.357Z,67.74
2023-03-20T09:28:18.652Z,67.82
2023-03-20T09:31:03.052Z,67.87
2023-03-20T09:33:46.921Z,67.79
2023-03-20T09:36:19.115Z,67.94
2023-03-20T09:39:00.847Z,67.77
2023-03-20T09:41:57.255Z,67.83
2023-03-20T09:44:54.250Z,67.92
2023-03-20T09:47:42.279Z,67.94
2023-03-20T09:50:54.311Z,68.05
2023-03-20T09:53:29.794Z,68.19
2023-03-20T09:56:24.428Z,68.16
2023-03-20T09:59:09.448Z,68.05
2023-03-20T10:01:47.541Z,68.11
2023-03-20T10:04:52.881Z,68.14
2023-03-20T10:07:39.470Z,67.98
2023-03-20T10:10:21.698Z,68.02
2023-03-20T10:13:09.369Z,68.05
2023-03-20T10:16:06.375Z,68.10
2023-03-20T10:18:50.692Z,68.04
2023-03-20T10:21:42.627Z,67.89
2023-03-20T10:24:55.607Z,68.15
2023-03-20T10:27:29.051Z,68.20
2023-03-20T10:30:34.633Z,68.33
2023-03-20T10:33:42.599Z,68.05
2023-03-20T10:36:56.344Z,68.12
2023-03-20T10:40:00.940Z,67.99
2023-03-20T10:42:52.654Z,68.13
2023-03-20T10:45:41.691Z,67.95
2023-03-20T10:48:42.186Z,68.23
2023-03-20T10:51:25.464Z,68.23
2023-03-20T10:57:23.963Z,68.23
2023-03-20T10:59:52.418Z,68.20
2023-03-20T11:02:21.577Z,68.25
2023-03-20T11:04:49.699Z,68.27
2023-03-20T11:07:21.277Z,68.07
2023-03-20T11:09:52.762Z,68.03
2023-03-20T11:12:22.212Z,67.93
2023-03-20T11:14:50.206Z,68.02
2023-03-20T11:17:20.784Z,68.11
2023-03-20T11:19:48.950Z,67.99
2023-03-20T11:22:24.488Z,68.52
2023-03-20T11:24:53.197Z,68.38
2023-03-20T11:27:26.739Z,68.54
2023-03-20T11:29:54.822Z,68.47
2023-03-20T11:32:29.368Z,68.67
2023-03-20T11:34:58.996Z,68.72
2023-03-20T11:37:29.047Z,68.76
2023-03-20T11:40:01.289Z,68.77
2023-03-20T11:42:31.601Z,68.93
2023-03-20T11:45:01.091Z,68.80
2023-03-20T11:47:29.982Z,68.85
2023-03-20T11:49:59.496Z,68.64
2023-03-20T11:52:29.100Z,68.44
2023-03-20T11:54:57.959Z,68.51
2023-03-20T11:57:32.888Z,68.65
2023-03-20T12:00:03.784Z,68.70
2023-03-20T12:02:32.918Z,68.67
2023-03-20T12:05:01.273Z,68.76
2023-03-20T12:07:30.784Z,68.56
2023-03-20T12:09:59.564Z,68.48
2023-03-20T12:12:37.718Z,68.70
2023-03-20T12:15:09.489Z,68.54
2023-03-20T12:17:42.394Z,68.63
2023-03-20T12:20:16.298Z,69.04
2023-03-20T12:22:48.838Z,68.77
2023-03-20T12:25:21.463Z,68.88
2023-03-20T12:27:54.051Z,68.84
2023-03-20T12:30:27.133Z,69.12
2023-03-20T12:32:57.745Z,69.13
2023-03-20T12:35:28.556Z,69.22
2023-03-20T12:37:56.645Z,69.42
2023-03-20T12:40:27.945Z,69.31
2023-03-20T12:43:03.308Z,69.33
2023-03-20T12:45:35.342Z,69.28
2023-03-20T12:48:28.951Z,69.30
2023-03-20T12:50:58.145Z,69.33
2023-03-20T12:53:41.739Z,69.14
2023-03-20T12:56:18.237Z,69.22
2023-03-20T12:58:49.413Z,69.21
2023-03-20T13:01:20.516Z,69.29
2023-03-20T13:04:10.123Z,69.53
2023-03-20T13:06:42.257Z,68.96
2023-03-20T13:09:33.598Z,69.09
2023-03-20T13:12:03.865Z,69.24
2023-03-20T13:14:43.049Z,68.98
2023-03-20T13:17:15.251Z,68.96
2023-03-20T13:19:45.385Z,68.90
2023-03-20T13:22:15.869Z,69.07
2023-03-20T13:24:46.042Z,69.06
2023-03-20T13:27:27.543Z,68.96
2023-03-20T13:29:59.421Z,68.89
2023-03-20T13:32:32.948Z,69.13
2023-03-20T13:35:23.513Z,69.13
2023-03-20T13:37:53.019Z,69.15
2023-03-20T13:40:22.640Z,69.24
2023-03-20T13:42:54.802Z,69.31
2023-03-20T13:45:32.018Z,69.38
2023-03-20T13:48:02.775Z,69.39
2023-03-20T13:50:39.368Z,69.44
2023-03-20T13:53:12.799Z,69.42
2023-03-20T13:55:44.525Z,69.67
2023-03-20T13:58:20.552Z,69.54
2023-03-20T14:00:51.463Z,69.15
2023-03-20T14:03:20.671Z,69.26
2023-03-20T14:05:48.922Z,69.23
2023-03-20T14:08:43.423Z,69.20
2023-03-20T14:11:16.597Z,69.23
2023-03-20T14:13:46.517Z,69.04
2023-03-20T14:16:18.424Z,69.09
2023-03-20T14:18:46.946Z,68.99
2023-03-20T14:21:15.869Z,69.21
2023-03-20T14:23:47.289Z,69.04
2023-03-20T14:26:21.973Z,69.32
2023-03-20T14:28:59.537Z,69.31
2023-03-20T14:31:32.307Z,69.30
2023-03-20T14:34:02.302Z,69.06
2023-03-20T14:36:43.177Z,69.12
2023-03-20T14:39:22.747Z,69.28
2023-03-20T14:41:58.922Z,69.24
2023-03-20T14:44:35.717Z,69.37
2023-03-20T14:47:07.766Z,69.44
2023-03-20T14:49:47.364Z,69.37
2023-03-20T14:52:33.415Z,69.59
2023-03-20T14:55:17.113Z,69.43
2023-03-20T14:57:56.164Z,69.24
2023-03-20T15:00:27.579Z,69.17
2023-03-20T15:03:02.731Z,69.26
2023-03-20T15:05:32.032Z,69.06
2023-03-20T15:08:07.245Z,68.87
2023-03-20T15:10:38.020Z,68.88
2023-03-20T15:13:07.902Z,68.96
2023-03-20T15:15:38.472Z,69.00
2023-03-20T15:18:10.586Z,68.78
2023-03-20T15:20:41.215Z,69.02
2023-03-20T15:23:09.389Z,69.13
2023-03-20T15:25:39.739Z,69.07
2023-03-20T15:28:09.931Z,68.98
2023-03-20T15:30:39.313Z,68.97
2023-03-20T15:33:09.217Z,69.12
2023-03-20T15:35:38.970Z,69.05
2023-03-20T15:38:08.298Z,69.06
2023-03-20T15:40:49.987Z,68.89
2023-03-20T15:43:20.525Z,68.87
2023-03-20T15:46:02.912Z,68.57
2023-03-20T15:48:42.299Z,68.56
2023-03-20T15:51:11.419Z,68.72
2023-03-20T15:53:41.514Z,68.59
2023-03-20T15:56:18.390Z,68.60
2023-03-20T15:58:48.690Z,68.65
2023-03-20T16:01:18.180Z,68.78
2023-03-20T16:03:48.730Z,68.67
2023-03-20T16:06:20.985Z,68.54
2023-03-20T16:08:58.085Z,68.54
2023-03-20T16:11:26.107Z,68.34
2023-03-20T16:13:58.600Z,68.30
2023-03-20T16:16:30.241Z,68.42
2023-03-20T16:19:00.045Z,68.29
2023-03-20T16:21:29.366Z,68.12
2023-03-20T16:23:57.895Z,68.20
2023-03-20T16:26:27.076Z,67.93
2023-03-20T16:29:00.244Z,67.97
2023-03-20T16:31:29.788Z,68.01
2023-03-20T16:34:01.207Z,68.05
2023-03-20T16:36:30.819Z,67.99
2023-03-20T16:39:00.470Z,68.04
2023-03-20T16:41:30.552Z,68.24
2023-03-20T16:43:58.835Z,68.08
2023-03-20T16:46:28.270Z,68.34
2023-03-20T16:49:05.073Z,68.52
2023-03-20T16:51:33.135Z,68.66
2023-03-20T16:54:02.055Z,68.54
2023-03-20T16:56:31.280Z,68.35
2023-03-20T16:58:59.528Z,68.41
2023-03-20T17:01:28.998Z,68.27
2023-03-20T17:03:57.714Z,68.50
2023-03-20T17:06:39.385Z,68.33
2023-03-20T17:09:19.725Z,68.61
2023-03-20T17:11:49.743Z,68.64
2023-03-20T17:14:21.023Z,68.49
2023-03-20T17:16:54.053Z,68.43
2023-03-20T17:19:23.659Z,68.27
2023-03-20T17:21:54.101Z,67.99
2023-03-20T17:24:22.917Z,68.08
2023-03-20T17:26:55.436Z,67.89
2023-03-20T17:29:23.816Z,67.76
2023-03-20T17:31:52.737Z,67.82
2023-03-20T17:34:21.752Z,67.68
2023-03-20T17:36:52.576Z,67.78
2023-03-20T17:39:22.455Z,67.57
2023-03-20T17:41:50.936Z,67.52
2023-03-20T17:44:20.167Z,67.57
2023-03-20T17:46:58.164Z,67.61
2023-03-20T17:49:35.854Z,67.45
2023-03-20T17:52:10.958Z,67.65
2023-03-20T17:54:39.449Z,67.53
2023-03-20T17:57:07.987Z,67.79
2023-03-20T17:59:36.248Z,67.71
2023-03-20T18:02:04.573Z,67.79
2023-03-20T18:04:41.280Z,67.79
2023-03-20T18:07:12.499Z,67.65
2023-03-20T18:09:40.897Z,67.55
2023-03-20T18:12:12.162Z,67.64
2023-03-20T18:14:43.089Z,67.44
2023-03-20T18:17:14.198Z,67.54
2023-03-20T18:19:42.749Z,67.49
2023-03-20T18:22:12.877Z,67.40
2023-03-20T18:24:45.552Z,67.25
2023-03-20T18:27:13.850Z,67.31
2023-03-20T18:29:42.065Z,67.42
2023-03-20T18:32:10.351Z,67.63
2023-03-20T18:34:38.467Z,67.59
2023-03-20T18:37:09.221Z,67.62
2023-03-20T18:39:38.805Z,67.59
2023-03-20T18:42:07.117Z,67.47
2023-03-20T18:44:35.301Z,67.53
2023-03-20T18:47:03.344Z,67.39
2023-03-20T18:49:31.715Z,67.59
2023-03-20T18:52:00.050Z,67.64
2023-03-20T18:54:27.962Z,67.53
2023-03-20T18:56:59.987Z,67.59
2023-03-20T18:59:28.162Z,67.60
2023-03-20T19:01:56.168Z,67.73
2023-03-20T19:04:24.155Z,67.69
2023-03-20T19:06:52.873Z,67.53
2023-03-20T19:09:21.694Z,67.57
2023-03-20T19:11:49.681Z,67.75
2023-03-20T19:14:19.476Z,67.75
2023-03-20T19:16:47.452Z,67.94
2023-03-20T19:19:16.229Z,67.84
2023-03-20T19:21:44.235Z,67.81
2023-03-20T19:24:12.572Z,67.85
2023-03-20T19:26:40.871Z,67.68
2023-03-20T19:29:10.636Z,67.60
2023-03-20T19:31:40.172Z,67.57
2023-03-20T19:34:28.090Z,67.52
2023-03-20T19:36:59.216Z,67.69
2023-03-20T19:39:28.830Z,67.62
2023-03-20T19:42:11.999Z,67.49
2023-03-20T19:44:45.344Z,67.46
2023-03-20T19:47:15.132Z,67.44
2023-03-20T19:49:44.838Z,67.32
2023-03-20T19:52:16.373Z,67.47
2023-03-20T19:54:59.917Z,67.39
2023-03-20T19:57:30.149Z,67.30
2023-03-20T20:00:43.880Z,67.32
2023-03-20T20:02:49.441Z,67.31
2023-03-20T20:05:21.260Z,67.25
2023-03-20T20:10:44.498Z,67.13
2023-03-20T20:13:16.250Z,67.36
2023-03-20T20:15:46.225Z,67.19
2023-03-20T20:18:16.637Z,67.13
2023-03-20T20:21:31.935Z,66.89
2023-03-20T20:23:38.286Z,66.84
2023-03-20T20:26:09.539Z,66.65
2023-03-20T20:28:37.585Z,66.73
2023-03-20T20:31:06.019Z,67.08
2023-03-20T20:33:36.789Z,66.67
2023-03-20T20:37:01.865Z,66.62
2023-03-20T20:38:59.579Z,66.43
2023-03-20T20:41:29.706Z,66.59
2023-03-20T20:44:17.146Z,66.58
2023-03-20T20:46:46.103Z,66.59
2023-03-20T20:49:19.787Z,66.45
2023-03-20T20:51:49.302Z,66.64
2023-03-20T20:54:17.295Z,66.53
2023-03-20T20:56:45.414Z,66.67
2023-03-20T20:59:13.516Z,66.78
2023-03-20T21:01:41.702Z,66.84
2023-03-20T21:04:10.317Z,66.93
2023-03-20T21:09:31.657Z,67.19
2023-03-20T21:12:01.100Z,67.08
2023-03-20T21:14:29.045Z,66.94
2023-03-20T21:17:01.523Z,67.18
2023-03-20T21:19:30.103Z,67.03
2023-03-20T21:21:59.476Z,67.15
2023-03-20T21:24:34.080Z,67.22
2023-03-20T21:27:03.155Z,67.42
2023-03-20T21:29:31.091Z,67.56
2023-03-20T21:31:59.218Z,67.43
2023-03-20T21:34:28.988Z,67.55
2023-03-20T21:36:59.647Z,67.51
2023-03-20T21:39:32.747Z,67.73
2023-03-20T21:42:01.254Z,67.85
2023-03-20T21:48:04.300Z,67.71
2023-03-20T21:50:59.217Z,67.57
2023-03-20T22:01:58.566Z,67.59
2023-03-20T22:05:10.922Z,67.42
2023-03-20T22:07:38.441Z,67.75
2023-03-20T22:16:27.080Z,67.60
2023-03-20T22:30:34.521Z,67.17
2023-03-20T22:46:45.902Z,67.02
2023-03-20T22:49:13.128Z,67.13
2023-03-20T22:51:55.631Z,67.17
2023-03-20T22:54:29.590Z,67.14
2023-03-20T22:56:57.517Z,67.29
2023-03-20T22:59:25.623Z,67.31
2023-03-20T23:01:56.169Z,67.38
2023-03-20T23:04:24.299Z,67.32
2023-03-20T23:06:54.136Z,67.24
2023-03-20T23:09:22.126Z,67.43
2023-03-20T23:11:50.068Z,67.67
2023-03-20T23:14:21.475Z,67.60
2023-03-20T23:16:50.105Z,67.47
2023-03-20T23:19:20.768Z,67.60
2023-03-20T23:21:48.765Z,67.68
2023-03-20T23:24:17.158Z,67.51
2023-03-20T23:26:45.573Z,67.74
2023-03-20T23:29:14.218Z,67.65
2023-03-20T23:31:42.220Z,67.52
2023-03-20T23:34:10.608Z,67.58
2023-03-20T23:36:40.405Z,67.49
2023-03-20T23:39:09.342Z,67.51
2023-03-20T23:44:25.525Z,67.40
2023-03-20T23:46:54.664Z,67.33
2023-03-20T23:49:23.348Z,67.48
2023-03-20T23:51:52.784Z,67.36
2023-03-20T23:54:22.099Z,67.46
2023-03-20T23:56:50.678Z,67.76
2023-03-20T23:59:22.260Z,67.44
